sensor_id;sensor_type;location;lat;lon;timestamp;P1;durP1;ratioP1;P2;durP2;ratioP2
11046;SDS011;5576;50.008;10.596;2023-02-18T00:01:42;13.18;;;11.98;;
11046;SDS011;5576;50.008;10.596;2023-02-18T00:04:08;9.37;;;8.57;;
11046;SDS011;5576;50.008;10.596;2023-02-18T00:06:34;8.93;;;8.23;;
11046;SDS011;5576;50.008;10.596;2023-02-18T00:09:01;10.02;;;9.13;;
11046;SDS011;5576;50.008;10.596;2023-02-18T00:11:29;9.98;;;9.07;;
11046;SDS011;5576;50.008;10.596;2023-02-18T00:13:57;11.50;;;10.55;;
11046;SDS011;5576;50.008;10.596;2023-02-18T00:16:24;9.90;;;9.00;;
11046;SDS011;5576;50.008;10.596;2023-02-18T00:18:55;9.80;;;9.00;;
11046;SDS011;5576;50.008;10.596;2023-02-18T00:21:22;10.48;;;9.57;;
11046;SDS011;5576;50.008;10.596;2023-02-18T00:23:47;9.27;;;8.48;;
11046;SDS011;5576;50.008;10.596;2023-02-18T00:26:14;9.70;;;8.87;;
11046;SDS011;5576;50.008;10.596;2023-02-18T00:28:41;10.57;;;9.57;;
11046;SDS011;5576;50.008;10.596;2023-02-18T00:31:08;11.00;;;10.00;;
11046;SDS011;5576;50.008;10.596;2023-02-18T00:33:36;10.50;;;9.60;;
11046;SDS011;5576;50.008;10.596;2023-02-18T00:36:03;9.63;;;8.82;;
11046;SDS011;5576;50.008;10.596;2023-02-18T00:38:30;9.82;;;9.02;;
11046;SDS011;5576;50.008;10.596;2023-02-18T00:40:57;9.55;;;8.75;;
11046;SDS011;5576;50.008;10.596;2023-02-18T00:43:23;8.02;;;7.32;;
11046;SDS011;5576;50.008;10.596;2023-02-18T00:45:49;7.95;;;7.32;;
11046;SDS011;5576;50.008;10.596;2023-02-18T00:48:15;7.35;;;6.75;;
11046;SDS011;5576;50.008;10.596;2023-02-18T00:50:41;7.18;;;6.57;;
11046;SDS011;5576;50.008;10.596;2023-02-18T00:53:07;7.23;;;6.63;;
11046;SDS011;5576;50.008;10.596;2023-02-18T00:55:37;7.20;;;6.60;;
11046;SDS011;5576;50.008;10.596;2023-02-18T00:58:04;6.43;;;5.82;;
11046;SDS011;5576;50.008;10.596;2023-02-18T01:00:30;7.07;;;6.50;;
11046;SDS011;5576;50.008;10.596;2023-02-18T01:02:56;6.67;;;6.07;;
11046;SDS011;5576;50.008;10.596;2023-02-18T01:05:22;7.50;;;6.90;;
11046;SDS011;5576;50.008;10.596;2023-02-18T01:07:48;8.32;;;7.53;;
11046;SDS011;5576;50.008;10.596;2023-02-18T01:10:14;8.33;;;7.63;;
11046;SDS011;5576;50.008;10.596;2023-02-18T01:12:40;8.73;;;7.93;;
11046;SDS011;5576;50.008;10.596;2023-02-18T01:15:05;8.88;;;8.07;;
11046;SDS011;5576;50.008;10.596;2023-02-18T01:17:32;8.52;;;7.82;;
11046;SDS011;5576;50.008;10.596;2023-02-18T01:19:58;10.23;;;9.23;;
11046;SDS011;5576;50.008;10.596;2023-02-18T01:22:24;10.55;;;9.65;;
11046;SDS011;5576;50.008;10.596;2023-02-18T01:24:51;10.40;;;9.50;;
11046;SDS011;5576;50.008;10.596;2023-02-18T01:27:17;10.85;;;9.95;;
11046;SDS011;5576;50.008;10.596;2023-02-18T01:29:43;9.43;;;8.63;;
11046;SDS011;5576;50.008;10.596;2023-02-18T01:32:08;10.80;;;9.90;;
11046;SDS011;5576;50.008;10.596;2023-02-18T01:34:34;10.00;;;9.20;;
11046;SDS011;5576;50.008;10.596;2023-02-18T01:37:00;10.25;;;9.45;;
11046;SDS011;5576;50.008;10.596;2023-02-18T01:39:25;9.90;;;9.10;;
11046;SDS011;5576;50.008;10.596;2023-02-18T01:41:51;9.35;;;8.63;;
11046;SDS011;5576;50.008;10.596;2023-02-18T01:44:18;9.20;;;8.50;;
11046;SDS011;5576;50.008;10.596;2023-02-18T01:46:46;9.57;;;8.77;;
11046;SDS011;5576;50.008;10.596;2023-02-18T01:49:16;9.30;;;8.52;;
11046;SDS011;5576;50.008;10.596;2023-02-18T01:51:49;9.40;;;8.65;;
11046;SDS011;5576;50.008;10.596;2023-02-18T01:54:20;9.88;;;8.98;;
11046;SDS011;5576;50.008;10.596;2023-02-18T01:56:53;9.52;;;8.73;;
11046;SDS011;5576;50.008;10.596;2023-02-18T02:02:11;9.05;;;8.35;;
11046;SDS011;5576;50.008;10.596;2023-02-18T02:04:39;8.37;;;7.67;;
11046;SDS011;5576;50.008;10.596;2023-02-18T02:07:07;8.20;;;7.50;;
11046;SDS011;5576;50.008;10.596;2023-02-18T02:09:34;7.97;;;7.38;;
11046;SDS011;5576;50.008;10.596;2023-02-18T02:17:49;8.00;;;7.30;;
11046;SDS011;5576;50.008;10.596;2023-02-18T02:26:14;7.32;;;6.72;;
11046;SDS011;5576;50.008;10.596;2023-02-18T02:34:17;7.70;;;7.10;;
11046;SDS011;5576;50.008;10.596;2023-02-18T02:45:53;7.18;;;6.68;;
11046;SDS011;5576;50.008;10.596;2023-02-18T02:51:32;7.22;;;6.63;;
11046;SDS011;5576;50.008;10.596;2023-02-18T02:54:09;8.25;;;7.65;;
11046;SDS011;5576;50.008;10.596;2023-02-18T02:59:54;8.38;;;7.70;;
11046;SDS011;5576;50.008;10.596;2023-02-18T03:05:28;8.30;;;7.60;;
11046;SDS011;5576;50.008;10.596;2023-02-18T03:08:13;8.15;;;7.55;;
11046;SDS011;5576;50.008;10.596;2023-02-18T03:11:02;8.15;;;7.45;;
11046;SDS011;5576;50.008;10.596;2023-02-18T03:16:00;7.72;;;7.15;;
11046;SDS011;5576;50.008;10.596;2023-02-18T03:21:22;8.18;;;7.47;;
11046;SDS011;5576;50.008;10.596;2023-02-18T03:23:52;8.57;;;7.87;;
11046;SDS011;5576;50.008;10.596;2023-02-18T03:26:21;8.30;;;7.60;;
11046;SDS011;5576;50.008;10.596;2023-02-18T03:28:50;8.43;;;7.72;;
11046;SDS011;5576;50.008;10.596;2023-02-18T03:31:19;7.90;;;7.30;;
11046;SDS011;5576;50.008;10.596;2023-02-18T03:33:50;7.70;;;7.10;;
11046;SDS011;5576;50.008;10.596;2023-02-18T03:36:21;7.20;;;6.60;;
11046;SDS011;5576;50.008;10.596;2023-02-18T03:38:52;7.22;;;6.65;;
11046;SDS011;5576;50.008;10.596;2023-02-18T03:41:23;7.35;;;6.75;;
11046;SDS011;5576;50.008;10.596;2023-02-18T03:43:51;6.38;;;5.88;;
11046;SDS011;5576;50.008;10.596;2023-02-18T03:46:17;6.55;;;6.05;;
11046;SDS011;5576;50.008;10.596;2023-02-18T03:48:44;6.20;;;5.70;;
11046;SDS011;5576;50.008;10.596;2023-02-18T03:51:10;5.80;;;5.40;;
11046;SDS011;5576;50.008;10.596;2023-02-18T03:53:36;5.82;;;5.38;;
11046;SDS011;5576;50.008;10.596;2023-02-18T03:56:02;6.07;;;5.57;;
11046;SDS011;5576;50.008;10.596;2023-02-18T03:58:28;5.50;;;5.10;;
11046;SDS011;5576;50.008;10.596;2023-02-18T04:00:54;5.50;;;5.10;;
11046;SDS011;5576;50.008;10.596;2023-02-18T04:03:19;5.28;;;4.85;;
11046;SDS011;5576;50.008;10.596;2023-02-18T04:05:45;5.37;;;4.97;;
11046;SDS011;5576;50.008;10.596;2023-02-18T04:08:12;5.23;;;4.83;;
11046;SDS011;5576;50.008;10.596;2023-02-18T04:10:38;5.00;;;4.60;;
11046;SDS011;5576;50.008;10.596;2023-02-18T04:13:04;4.82;;;4.43;;
11046;SDS011;5576;50.008;10.596;2023-02-18T04:15:29;4.53;;;4.13;;
11046;SDS011;5576;50.008;10.596;2023-02-18T04:17:55;4.30;;;4.00;;
11046;SDS011;5576;50.008;10.596;2023-02-18T04:20:21;4.30;;;4.00;;
11046;SDS011;5576;50.008;10.596;2023-02-18T04:22:47;3.95;;;3.65;;
11046;SDS011;5576;50.008;10.596;2023-02-18T04:25:13;3.80;;;3.50;;
11046;SDS011;5576;50.008;10.596;2023-02-18T04:27:38;3.53;;;3.30;;
11046;SDS011;5576;50.008;10.596;2023-02-18T04:30:04;3.28;;;3.00;;
11046;SDS011;5576;50.008;10.596;2023-02-18T04:32:31;3.00;;;2.80;;
11046;SDS011;5576;50.008;10.596;2023-02-18T04:34:57;2.90;;;2.70;;
11046;SDS011;5576;50.008;10.596;2023-02-18T04:37:23;2.90;;;2.70;;
11046;SDS011;5576;50.008;10.596;2023-02-18T04:39:49;2.90;;;2.70;;
11046;SDS011;5576;50.008;10.596;2023-02-18T04:42:15;2.90;;;2.70;;
11046;SDS011;5576;50.008;10.596;2023-02-18T04:44:40;2.72;;;2.53;;
11046;SDS011;5576;50.008;10.596;2023-02-18T04:47:06;3.00;;;2.80;;
11046;SDS011;5576;50.008;10.596;2023-02-18T04:49:32;3.63;;;2.50;;
11046;SDS011;5576;50.008;10.596;2023-02-18T04:51:58;2.25;;;2.10;;
11046;SDS011;5576;50.008;10.596;2023-02-18T04:54:24;1.90;;;1.80;;
11046;SDS011;5576;50.008;10.596;2023-02-18T04:56:50;1.70;;;1.60;;
11046;SDS011;5576;50.008;10.596;2023-02-18T04:59:16;2.08;;;1.90;;
11046;SDS011;5576;50.008;10.596;2023-02-18T05:01:42;2.00;;;1.80;;
11046;SDS011;5576;50.008;10.596;2023-02-18T05:04:08;2.10;;;2.00;;
11046;SDS011;5576;50.008;10.596;2023-02-18T05:06:33;2.20;;;2.00;;
11046;SDS011;5576;50.008;10.596;2023-02-18T05:08:59;2.23;;;2.00;;
11046;SDS011;5576;50.008;10.596;2023-02-18T05:11:25;2.17;;;2.00;;
11046;SDS011;5576;50.008;10.596;2023-02-18T05:13:50;2.10;;;2.00;;
11046;SDS011;5576;50.008;10.596;2023-02-18T05:16:16;2.50;;;2.30;;
11046;SDS011;5576;50.008;10.596;2023-02-18T05:18:42;2.20;;;2.10;;
11046;SDS011;5576;50.008;10.596;2023-02-18T05:21:08;2.13;;;2.00;;
11046;SDS011;5576;50.008;10.596;2023-02-18T05:23:33;2.17;;;1.95;;
11046;SDS011;5576;50.008;10.596;2023-02-18T05:25:59;2.00;;;1.80;;
11046;SDS011;5576;50.008;10.596;2023-02-18T05:28:25;2.25;;;1.80;;
11046;SDS011;5576;50.008;10.596;2023-02-18T05:30:50;3.50;;;3.20;;
11046;SDS011;5576;50.008;10.596;2023-02-18T05:33:16;2.30;;;2.10;;
11046;SDS011;5576;50.008;10.596;2023-02-18T05:35:42;2.20;;;2.10;;
11046;SDS011;5576;50.008;10.596;2023-02-18T05:38:08;3.08;;;2.65;;
11046;SDS011;5576;50.008;10.596;2023-02-18T05:40:34;2.80;;;2.60;;
11046;SDS011;5576;50.008;10.596;2023-02-18T05:43:00;2.30;;;2.20;;
11046;SDS011;5576;50.008;10.596;2023-02-18T05:45:25;2.40;;;2.20;;
11046;SDS011;5576;50.008;10.596;2023-02-18T05:47:51;2.65;;;2.45;;
11046;SDS011;5576;50.008;10.596;2023-02-18T05:50:17;2.72;;;2.53;;
11046;SDS011;5576;50.008;10.596;2023-02-18T05:52:43;3.00;;;2.80;;
11046;SDS011;5576;50.008;10.596;2023-02-18T05:55:08;3.10;;;2.72;;
11046;SDS011;5576;50.008;10.596;2023-02-18T05:57:34;3.20;;;2.90;;
11046;SDS011;5576;50.008;10.596;2023-02-18T06:00:00;3.40;;;3.10;;
11046;SDS011;5576;50.008;10.596;2023-02-18T06:02:26;3.58;;;3.28;;
11046;SDS011;5576;50.008;10.596;2023-02-18T06:04:51;3.80;;;3.50;;
11046;SDS011;5576;50.008;10.596;2023-02-18T06:07:17;3.83;;;3.53;;
11046;SDS011;5576;50.008;10.596;2023-02-18T06:09:45;3.67;;;3.37;;
11046;SDS011;5576;50.008;10.596;2023-02-18T06:12:11;3.75;;;3.45;;
11046;SDS011;5576;50.008;10.596;2023-02-18T06:14:37;3.70;;;3.40;;
11046;SDS011;5576;50.008;10.596;2023-02-18T06:17:06;3.92;;;3.63;;
11046;SDS011;5576;50.008;10.596;2023-02-18T06:19:33;4.25;;;3.85;;
11046;SDS011;5576;50.008;10.596;2023-02-18T06:21:59;4.47;;;4.07;;
11046;SDS011;5576;50.008;10.596;2023-02-18T06:24:25;4.00;;;3.70;;
11046;SDS011;5576;50.008;10.596;2023-02-18T06:26:51;4.27;;;3.87;;
11046;SDS011;5576;50.008;10.596;2023-02-18T06:29:16;4.30;;;3.90;;
11046;SDS011;5576;50.008;10.596;2023-02-18T06:31:42;3.90;;;3.60;;
11046;SDS011;5576;50.008;10.596;2023-02-18T06:34:08;3.92;;;3.63;;
11046;SDS011;5576;50.008;10.596;2023-02-18T06:36:33;3.60;;;3.30;;
11046;SDS011;5576;50.008;10.596;2023-02-18T06:39:01;3.17;;;2.95;;
11046;SDS011;5576;50.008;10.596;2023-02-18T06:41:28;3.20;;;2.90;;
11046;SDS011;5576;50.008;10.596;2023-02-18T06:43:54;3.58;;;3.28;;
11046;SDS011;5576;50.008;10.596;2023-02-18T06:46:19;3.60;;;3.33;;
11046;SDS011;5576;50.008;10.596;2023-02-18T06:48:45;3.38;;;3.17;;
11046;SDS011;5576;50.008;10.596;2023-02-18T06:51:11;4.10;;;3.80;;
11046;SDS011;5576;50.008;10.596;2023-02-18T06:53:37;8.60;;;7.80;;
11046;SDS011;5576;50.008;10.596;2023-02-18T06:56:02;4.00;;;3.70;;
11046;SDS011;5576;50.008;10.596;2023-02-18T06:58:28;3.90;;;3.60;;
11046;SDS011;5576;50.008;10.596;2023-02-18T07:00:54;4.67;;;4.27;;
11046;SDS011;5576;50.008;10.596;2023-02-18T07:03:20;4.85;;;4.45;;
11046;SDS011;5576;50.008;10.596;2023-02-18T07:05:45;4.97;;;4.57;;
11046;SDS011;5576;50.008;10.596;2023-02-18T07:08:11;5.53;;;5.03;;
11046;SDS011;5576;50.008;10.596;2023-02-18T07:10:37;5.27;;;4.87;;
11046;SDS011;5576;50.008;10.596;2023-02-18T07:13:03;5.45;;;5.00;;
11046;SDS011;5576;50.008;10.596;2023-02-18T07:15:29;5.63;;;5.13;;
11046;SDS011;5576;50.008;10.596;2023-02-18T07:17:55;6.57;;;5.70;;
11046;SDS011;5576;50.008;10.596;2023-02-18T07:20:21;7.68;;;6.88;;
11046;SDS011;5576;50.008;10.596;2023-02-18T07:22:48;9.02;;;8.13;;
11046;SDS011;5576;50.008;10.596;2023-02-18T07:25:14;7.35;;;6.65;;
11046;SDS011;5576;50.008;10.596;2023-02-18T07:27:40;7.50;;;6.80;;
11046;SDS011;5576;50.008;10.596;2023-02-18T07:30:06;7.60;;;7.00;;
11046;SDS011;5576;50.008;10.596;2023-02-18T07:32:33;6.70;;;6.10;;
11046;SDS011;5576;50.008;10.596;2023-02-18T07:34:59;7.15;;;6.55;;
11046;SDS011;5576;50.008;10.596;2023-02-18T07:37:25;6.80;;;6.20;;
11046;SDS011;5576;50.008;10.596;2023-02-18T07:39:50;6.60;;;6.07;;
11046;SDS011;5576;50.008;10.596;2023-02-18T07:42:16;7.40;;;6.80;;
11046;SDS011;5576;50.008;10.596;2023-02-18T07:44:43;8.13;;;7.43;;
11046;SDS011;5576;50.008;10.596;2023-02-18T07:47:09;7.60;;;7.00;;
11046;SDS011;5576;50.008;10.596;2023-02-18T07:49:38;8.00;;;7.30;;
11046;SDS011;5576;50.008;10.596;2023-02-18T07:52:04;8.00;;;7.28;;
11046;SDS011;5576;50.008;10.596;2023-02-18T07:54:30;7.97;;;7.27;;
11046;SDS011;5576;50.008;10.596;2023-02-18T07:56:56;7.80;;;7.20;;
11046;SDS011;5576;50.008;10.596;2023-02-18T07:59:21;8.10;;;7.37;;
11046;SDS011;5576;50.008;10.596;2023-02-18T08:01:47;8.15;;;7.45;;
11046;SDS011;5576;50.008;10.596;2023-02-18T08:04:13;7.60;;;7.00;;
11046;SDS011;5576;50.008;10.596;2023-02-18T08:06:40;8.40;;;7.63;;
11046;SDS011;5576;50.008;10.596;2023-02-18T08:09:08;7.63;;;6.97;;
11046;SDS011;5576;50.008;10.596;2023-02-18T08:11:34;7.78;;;7.03;;
11046;SDS011;5576;50.008;10.596;2023-02-18T08:14:00;7.88;;;7.18;;
11046;SDS011;5576;50.008;10.596;2023-02-18T08:16:26;7.85;;;7.15;;
11046;SDS011;5576;50.008;10.596;2023-02-18T08:18:52;9.00;;;8.13;;
11046;SDS011;5576;50.008;10.596;2023-02-18T08:21:19;10.82;;;9.80;;
11046;SDS011;5576;50.008;10.596;2023-02-18T08:23:46;8.02;;;7.32;;
11046;SDS011;5576;50.008;10.596;2023-02-18T08:26:12;8.48;;;7.57;;
11046;SDS011;5576;50.008;10.596;2023-02-18T08:28:42;8.43;;;7.72;;
11046;SDS011;5576;50.008;10.596;2023-02-18T08:33:49;8.57;;;7.82;;
11046;SDS011;5576;50.008;10.596;2023-02-18T08:36:15;8.93;;;8.03;;
11046;SDS011;5576;50.008;10.596;2023-02-18T08:38:41;9.43;;;8.52;;
11046;SDS011;5576;50.008;10.596;2023-02-18T08:41:07;8.13;;;7.43;;
11046;SDS011;5576;50.008;10.596;2023-02-18T08:43:33;9.55;;;8.65;;
11046;SDS011;5576;50.008;10.596;2023-02-18T08:46:00;8.38;;;7.57;;
11046;SDS011;5576;50.008;10.596;2023-02-18T08:48:26;8.35;;;7.63;;
11046;SDS011;5576;50.008;10.596;2023-02-18T08:50:52;8.10;;;7.40;;
11046;SDS011;5576;50.008;10.596;2023-02-18T08:53:18;8.10;;;7.40;;
11046;SDS011;5576;50.008;10.596;2023-02-18T08:55:43;8.07;;;7.38;;
11046;SDS011;5576;50.008;10.596;2023-02-18T08:58:09;8.15;;;7.38;;
11046;SDS011;5576;50.008;10.596;2023-02-18T09:00:36;7.80;;;7.10;;
11046;SDS011;5576;50.008;10.596;2023-02-18T09:03:04;7.90;;;7.13;;
11046;SDS011;5576;50.008;10.596;2023-02-18T09:05:30;7.57;;;6.88;;
11046;SDS011;5576;50.008;10.596;2023-02-18T09:07:56;8.30;;;7.50;;
11046;SDS011;5576;50.008;10.596;2023-02-18T09:10:22;7.70;;;7.00;;
11046;SDS011;5576;50.008;10.596;2023-02-18T09:12:47;8.40;;;7.60;;
11046;SDS011;5576;50.008;10.596;2023-02-18T09:15:13;8.45;;;7.65;;
11046;SDS011;5576;50.008;10.596;2023-02-18T09:17:39;8.33;;;7.63;;
11046;SDS011;5576;50.008;10.596;2023-02-18T09:20:05;8.48;;;7.60;;
11046;SDS011;5576;50.008;10.596;2023-02-18T09:22:31;8.63;;;7.80;;
11046;SDS011;5576;50.008;10.596;2023-02-18T09:24:57;8.35;;;7.65;;
11046;SDS011;5576;50.008;10.596;2023-02-18T09:27:23;8.18;;;7.47;;
11046;SDS011;5576;50.008;10.596;2023-02-18T09:29:49;9.07;;;8.18;;
11046;SDS011;5576;50.008;10.596;2023-02-18T09:32:15;8.17;;;7.40;;
11046;SDS011;5576;50.008;10.596;2023-02-18T09:34:42;8.63;;;7.82;;
11046;SDS011;5576;50.008;10.596;2023-02-18T09:37:08;8.15;;;7.35;;
11046;SDS011;5576;50.008;10.596;2023-02-18T09:39:34;8.82;;;8.00;;
11046;SDS011;5576;50.008;10.596;2023-02-18T09:42:03;9.57;;;8.68;;
11046;SDS011;5576;50.008;10.596;2023-02-18T09:44:33;8.40;;;7.57;;
11046;SDS011;5576;50.008;10.596;2023-02-18T09:49:39;8.18;;;7.38;;
11046;SDS011;5576;50.008;10.596;2023-02-18T09:54:54;11.52;;;10.20;;
11046;SDS011;5576;50.008;10.596;2023-02-18T10:00:03;8.55;;;7.75;;
11046;SDS011;5576;50.008;10.596;2023-02-18T10:02:38;8.38;;;7.53;;
11046;SDS011;5576;50.008;10.596;2023-02-18T10:05:05;8.43;;;7.63;;
11046;SDS011;5576;50.008;10.596;2023-02-18T10:07:36;8.18;;;7.38;;
11046;SDS011;5576;50.008;10.596;2023-02-18T10:10:30;8.10;;;7.30;;
11046;SDS011;5576;50.008;10.596;2023-02-18T10:13:00;7.35;;;6.65;;
11046;SDS011;5576;50.008;10.596;2023-02-18T10:15:29;7.70;;;7.00;;
11046;SDS011;5576;50.008;10.596;2023-02-18T10:17:56;8.40;;;7.60;;
11046;SDS011;5576;50.008;10.596;2023-02-18T10:20:24;7.40;;;6.70;;
11046;SDS011;5576;50.008;10.596;2023-02-18T10:22:53;8.02;;;7.22;;
11046;SDS011;5576;50.008;10.596;2023-02-18T10:25:22;7.22;;;6.57;;
11046;SDS011;5576;50.008;10.596;2023-02-18T10:27:49;7.40;;;6.70;;
11046;SDS011;5576;50.008;10.596;2023-02-18T10:32:47;7.88;;;7.10;;
11046;SDS011;5576;50.008;10.596;2023-02-18T10:35:24;7.25;;;6.60;;
11046;SDS011;5576;50.008;10.596;2023-02-18T10:46:02;5.03;;;4.63;;
11046;SDS011;5576;50.008;10.596;2023-02-18T10:49:02;5.22;;;4.57;;
11046;SDS011;5576;50.008;10.596;2023-02-18T10:51:31;5.18;;;4.70;;
11046;SDS011;5576;50.008;10.596;2023-02-18T10:53:59;4.50;;;4.07;;
11046;SDS011;5576;50.008;10.596;2023-02-18T10:56:31;4.67;;;4.00;;
11046;SDS011;5576;50.008;10.596;2023-02-18T10:59:22;4.68;;;4.00;;
11046;SDS011;5576;50.008;10.596;2023-02-18T11:01:54;4.47;;;4.07;;
11046;SDS011;5576;50.008;10.596;2023-02-18T11:04:25;4.00;;;3.60;;
11046;SDS011;5576;50.008;10.596;2023-02-18T11:07:01;4.30;;;3.90;;
11046;SDS011;5576;50.008;10.596;2023-02-18T11:12:22;3.90;;;3.30;;
11046;SDS011;5576;50.008;10.596;2023-02-18T11:15:03;4.22;;;3.47;;
11046;SDS011;5576;50.008;10.596;2023-02-18T11:17:30;3.80;;;3.50;;
11046;SDS011;5576;50.008;10.596;2023-02-18T11:19:59;4.10;;;3.40;;
11046;SDS011;5576;50.008;10.596;2023-02-18T11:22:28;3.80;;;3.47;;
11046;SDS011;5576;50.008;10.596;2023-02-18T11:24:58;3.45;;;3.15;;
11046;SDS011;5576;50.008;10.596;2023-02-18T11:27:42;3.80;;;3.50;;
11046;SDS011;5576;50.008;10.596;2023-02-18T11:32:47;3.60;;;3.30;;
11046;SDS011;5576;50.008;10.596;2023-02-18T11:35:17;3.53;;;3.20;;
11046;SDS011;5576;50.008;10.596;2023-02-18T11:37:46;3.87;;;3.30;;
11046;SDS011;5576;50.008;10.596;2023-02-18T11:40:19;3.67;;;3.35;;
11046;SDS011;5576;50.008;10.596;2023-02-18T11:42:48;3.70;;;3.40;;
11046;SDS011;5576;50.008;10.596;2023-02-18T11:45:30;3.30;;;3.00;;
11046;SDS011;5576;50.008;10.596;2023-02-18T11:47:59;3.92;;;3.25;;
11046;SDS011;5576;50.008;10.596;2023-02-18T11:50:29;4.00;;;3.60;;
11046;SDS011;5576;50.008;10.596;2023-02-18T11:52:56;3.88;;;3.50;;
11046;SDS011;5576;50.008;10.596;2023-02-18T11:55:25;3.50;;;3.20;;
11046;SDS011;5576;50.008;10.596;2023-02-18T11:57:55;3.50;;;3.20;;
11046;SDS011;5576;50.008;10.596;2023-02-18T12:05:47;3.30;;;3.00;;
11046;SDS011;5576;50.008;10.596;2023-02-18T12:08:16;4.03;;;3.40;;
11046;SDS011;5576;50.008;10.596;2023-02-18T12:10:53;3.40;;;3.10;;
11046;SDS011;5576;50.008;10.596;2023-02-18T12:13:26;3.38;;;2.90;;
11046;SDS011;5576;50.008;10.596;2023-02-18T12:24:25;3.30;;;3.00;;
11046;SDS011;5576;50.008;10.596;2023-02-18T12:30:02;3.55;;;2.70;;
11046;SDS011;5576;50.008;10.596;2023-02-18T12:40:39;3.10;;;2.75;;
11046;SDS011;5576;50.008;10.596;2023-02-18T12:43:34;2.75;;;2.45;;
11046;SDS011;5576;50.008;10.596;2023-02-18T12:48:44;3.00;;;2.67;;
11046;SDS011;5576;50.008;10.596;2023-02-18T12:51:24;3.40;;;2.53;;
11046;SDS011;5576;50.008;10.596;2023-02-18T12:57:06;3.43;;;2.63;;
11046;SDS011;5576;50.008;10.596;2023-02-18T13:02:38;2.95;;;2.60;;
11046;SDS011;5576;50.008;10.596;2023-02-18T13:05:37;2.35;;;2.15;;
11046;SDS011;5576;50.008;10.596;2023-02-18T13:11:08;2.60;;;2.10;;
11046;SDS011;5576;50.008;10.596;2023-02-18T13:13:48;2.13;;;1.92;;
11046;SDS011;5576;50.008;10.596;2023-02-18T13:16:23;2.00;;;1.70;;
11046;SDS011;5576;50.008;10.596;2023-02-18T13:19:11;2.38;;;1.85;;
11046;SDS011;5576;50.008;10.596;2023-02-18T13:21:57;2.15;;;1.77;;
11046;SDS011;5576;50.008;10.596;2023-02-18T13:24:32;2.60;;;1.90;;
11046;SDS011;5576;50.008;10.596;2023-02-18T13:27:04;2.20;;;2.00;;
11046;SDS011;5576;50.008;10.596;2023-02-18T13:29:42;2.30;;;2.10;;
11046;SDS011;5576;50.008;10.596;2023-02-18T13:35:01;2.85;;;2.10;;
11046;SDS011;5576;50.008;10.596;2023-02-18T13:40:39;2.40;;;1.70;;
11046;SDS011;5576;50.008;10.596;2023-02-18T13:46:08;2.03;;;1.83;;
11046;SDS011;5576;50.008;10.596;2023-02-18T13:48:42;4.45;;;2.00;;
11046;SDS011;5576;50.008;10.596;2023-02-18T13:51:14;2.05;;;1.80;;
11046;SDS011;5576;50.008;10.596;2023-02-18T13:53:50;2.20;;;1.80;;
11046;SDS011;5576;50.008;10.596;2023-02-18T13:56:19;2.10;;;1.50;;
11046;SDS011;5576;50.008;10.596;2023-02-18T13:58:57;2.50;;;1.50;;
11046;SDS011;5576;50.008;10.596;2023-02-18T14:01:42;2.10;;;1.70;;
11046;SDS011;5576;50.008;10.596;2023-02-18T14:04:32;1.40;;;1.30;;
11046;SDS011;5576;50.008;10.596;2023-02-18T14:10:01;2.80;;;1.50;;
11046;SDS011;5576;50.008;10.596;2023-02-18T14:25:53;2.90;;;2.00;;
11046;SDS011;5576;50.008;10.596;2023-02-18T14:28:40;2.55;;;1.70;;
11046;SDS011;5576;50.008;10.596;2023-02-18T14:33:39;2.53;;;1.90;;
11046;SDS011;5576;50.008;10.596;2023-02-18T14:41:36;2.75;;;1.80;;
11046;SDS011;5576;50.008;10.596;2023-02-18T14:49:42;2.00;;;1.80;;
11046;SDS011;5576;50.008;10.596;2023-02-18T14:52:12;2.20;;;2.00;;
11046;SDS011;5576;50.008;10.596;2023-02-18T14:54:46;2.90;;;1.70;;
11046;SDS011;5576;50.008;10.596;2023-02-18T14:57:14;1.63;;;1.40;;
11046;SDS011;5576;50.008;10.596;2023-02-18T14:59:42;1.20;;;1.10;;
11046;SDS011;5576;50.008;10.596;2023-02-18T15:02:14;1.70;;;1.30;;
11046;SDS011;5576;50.008;10.596;2023-02-18T15:04:44;2.10;;;1.63;;
11046;SDS011;5576;50.008;10.596;2023-02-18T15:07:10;2.40;;;1.40;;
11046;SDS011;5576;50.008;10.596;2023-02-18T15:09:43;2.47;;;1.50;;
11046;SDS011;5576;50.008;10.596;2023-02-18T15:12:11;2.83;;;2.03;;
11046;SDS011;5576;50.008;10.596;2023-02-18T15:14:42;1.63;;;1.40;;
11046;SDS011;5576;50.008;10.596;2023-02-18T15:17:12;1.55;;;1.30;;
11046;SDS011;5576;50.008;10.596;2023-02-18T15:19:42;1.57;;;1.30;;
11046;SDS011;5576;50.008;10.596;2023-02-18T15:22:16;2.45;;;1.40;;
11046;SDS011;5576;50.008;10.596;2023-02-18T15:24:45;2.33;;;1.30;;
11046;SDS011;5576;50.008;10.596;2023-02-18T15:27:14;2.42;;;1.60;;
11046;SDS011;5576;50.008;10.596;2023-02-18T15:29:42;2.22;;;1.42;;
11046;SDS011;5576;50.008;10.596;2023-02-18T15:32:14;2.10;;;1.55;;
11046;SDS011;5576;50.008;10.596;2023-02-18T15:34:42;2.45;;;1.65;;
11046;SDS011;5576;50.008;10.596;2023-02-18T15:37:10;2.72;;;1.80;;
11046;SDS011;5576;50.008;10.596;2023-02-18T15:39:38;1.70;;;1.60;;
11046;SDS011;5576;50.008;10.596;2023-02-18T15:42:14;2.45;;;1.60;;
11046;SDS011;5576;50.008;10.596;2023-02-18T15:45:00;2.22;;;1.63;;
11046;SDS011;5576;50.008;10.596;2023-02-18T15:47:29;3.08;;;1.88;;
11046;SDS011;5576;50.008;10.596;2023-02-18T15:49:57;20.27;;;18.73;;
11046;SDS011;5576;50.008;10.596;2023-02-18T15:52:26;4.65;;;3.63;;
11046;SDS011;5576;50.008;10.596;2023-02-18T15:54:55;2.40;;;2.20;;
11046;SDS011;5576;50.008;10.596;2023-02-18T15:57:27;2.65;;;2.10;;
11046;SDS011;5576;50.008;10.596;2023-02-18T15:59:54;3.42;;;2.70;;
11046;SDS011;5576;50.008;10.596;2023-02-18T16:02:31;3.00;;;2.10;;
11046;SDS011;5576;50.008;10.596;2023-02-18T16:04:58;2.03;;;1.80;;
11046;SDS011;5576;50.008;10.596;2023-02-18T16:07:27;3.20;;;2.15;;
11046;SDS011;5576;50.008;10.596;2023-02-18T16:12:43;7.32;;;4.43;;
11046;SDS011;5576;50.008;10.596;2023-02-18T16:15:15;3.05;;;2.50;;
11046;SDS011;5576;50.008;10.596;2023-02-18T16:17:49;3.40;;;2.90;;
11046;SDS011;5576;50.008;10.596;2023-02-18T16:20:24;3.17;;;2.80;;
11046;SDS011;5576;50.008;10.596;2023-02-18T16:23:07;2.97;;;2.58;;
11046;SDS011;5576;50.008;10.596;2023-02-18T16:25:44;3.10;;;2.80;;
11046;SDS011;5576;50.008;10.596;2023-02-18T16:28:15;3.28;;;2.40;;
11046;SDS011;5576;50.008;10.596;2023-02-18T16:30:47;2.78;;;2.40;;
11046;SDS011;5576;50.008;10.596;2023-02-18T16:33:13;2.80;;;2.50;;
11046;SDS011;5576;50.008;10.596;2023-02-18T16:35:39;3.90;;;2.90;;
11046;SDS011;5576;50.008;10.596;2023-02-18T16:38:06;3.17;;;2.78;;
11046;SDS011;5576;50.008;10.596;2023-02-18T16:40:36;3.00;;;2.67;;
11046;SDS011;5576;50.008;10.596;2023-02-18T16:43:09;2.80;;;2.47;;
11046;SDS011;5576;50.008;10.596;2023-02-18T16:45:38;2.77;;;2.57;;
11046;SDS011;5576;50.008;10.596;2023-02-18T16:48:10;3.35;;;2.72;;
11046;SDS011;5576;50.008;10.596;2023-02-18T16:50:46;3.78;;;3.13;;
11046;SDS011;5576;50.008;10.596;2023-02-18T16:53:14;3.77;;;2.80;;
11046;SDS011;5576;50.008;10.596;2023-02-18T16:55:40;3.08;;;2.60;;
11046;SDS011;5576;50.008;10.596;2023-02-18T16:58:06;3.20;;;2.90;;
11046;SDS011;5576;50.008;10.596;2023-02-18T17:00:32;3.00;;;2.70;;
11046;SDS011;5576;50.008;10.596;2023-02-18T17:02:58;3.60;;;2.47;;
11046;SDS011;5576;50.008;10.596;2023-02-18T17:05:26;2.90;;;2.60;;
11046;SDS011;5576;50.008;10.596;2023-02-18T17:07:54;2.70;;;2.35;;
11046;SDS011;5576;50.008;10.596;2023-02-18T17:10:43;2.60;;;2.40;;
11046;SDS011;5576;50.008;10.596;2023-02-18T17:13:14;2.45;;;2.22;;
11046;SDS011;5576;50.008;10.596;2023-02-18T17:15:42;2.75;;;2.42;;
11046;SDS011;5576;50.008;10.596;2023-02-18T17:18:08;4.07;;;3.30;;
11046;SDS011;5576;50.008;10.596;2023-02-18T17:20:34;4.47;;;3.60;;
11046;SDS011;5576;50.008;10.596;2023-02-18T17:22:59;6.35;;;4.90;;
11046;SDS011;5576;50.008;10.596;2023-02-18T17:25:34;4.65;;;3.75;;
11046;SDS011;5576;50.008;10.596;2023-02-18T17:28:02;3.38;;;3.00;;